Time;durP1;ratioP1;P1;durP2;ratioP2;P2;SDS_P1;SDS_P2;PMS_P1;PMS_P2;Temp;Humidity;BMP_temperature;BMP_pressure;BME280_temperature;BME280_humidity;BME280_pressure;Samples;Min_cycle;Max_cycle;Signal;HPM_P1;HPM_P2
2022/09/05 00:00:08;;;;;;;9.93;8.43;;;23.70;61.20;;;;;;4975438;28;20023;-85
2022/09/05 00:02:55;;;;;;;9.65;8.65;;;23.80;60.90;;;;;;4975076;28;20042;-86
2022/09/05 00:05:35;;;;;;;11.43;8.40;;;23.90;60.90;;;;;;4959116;28;20438;-87
2022/09/05 00:08:29;;;;;;;12.32;9.52;;;23.90;60.70;;;;;;4975163;28;20605;-86
2022/09/05 00:11:19;;;;;;;10.23;8.85;;;23.90;60.50;;;;;;4971122;28;20560;-87
2022/09/05 00:13:56;;;;;;;11.60;10.40;;;23.90;60.60;;;;;;5000134;28;20033;-86
2022/09/05 00:16:36;;;;;;;11.13;8.68;;;23.90;60.70;;;;;;5038123;28;20067;-86
2022/09/05 00:19:20;;;;;;;;;;;23.70;62.00;;;;;;5031672;28;20029;-87
2022/09/05 00:21:59;;;;;;;13.30;8.70;;;23.30;63.00;;;;;;5024008;28;19905;-84
2022/09/05 00:25:03;;;;;;;10.40;8.70;;;23.30;62.90;;;;;;5018596;28;20424;-87
2022/09/05 00:27:57;;;;;;;11.65;9.35;;;23.50;62.20;;;;;;5018189;28;20450;-85
2022/09/05 00:30:22;;;;;;;11.80;8.48;;;23.70;61.60;;;;;;5032291;28;20029;-86
2022/09/05 00:33:16;;;;;;;8.50;7.63;;;23.80;61.30;;;;;;5030834;28;20083;-85
2022/09/05 00:36:12;;;;;;;8.65;7.35;;;23.70;61.80;;;;;;5026302;28;20064;-83
2022/09/05 00:38:49;;;;;;;10.50;8.18;;;23.50;61.80;;;;;;5038377;28;20025;-85
2022/09/05 00:41:17;;;;;;;10.75;8.93;;;23.50;61.70;;;;;;5035290;28;20096;-84
2022/09/05 00:43:48;;;;;;;10.25;7.72;;;23.70;60.80;;;;;;5021861;28;20041;-86
2022/09/05 00:46:28;;;;;;;10.93;9.18;;;23.80;60.50;;;;;;5055198;28;20028;-84
2022/09/05 00:48:56;;;;;;;10.53;7.33;;;23.80;60.20;;;;;;5055130;28;20464;-85
2022/09/05 00:51:30;;;;;;;10.52;8.00;;;23.60;61.00;;;;;;5034754;28;20045;-85
2022/09/05 00:54:10;;;;;;;10.75;8.30;;;23.40;62.00;;;;;;5022510;28;20021;-85
2022/09/05 00:56:54;;;;;;;;;;;23.40;61.00;;;;;;5036315;28;20032;-85
2022/09/05 00:59:51;;;;;;;9.75;8.52;;;23.50;60.40;;;;;;5043653;28;19915;-85
2022/09/05 01:02:54;;;;;;;10.45;7.50;;;23.50;60.50;;;;;;5025899;28;20490;-84
2022/09/05 01:05:51;;;;;;;12.25;9.38;;;23.50;61.00;;;;;;5028505;28;20037;-85
2022/09/05 01:08:20;;;;;;;10.65;9.40;;;23.40;61.10;;;;;;5027391;28;20400;-82
2022/09/05 01:10:55;;;;;;;11.50;9.10;;;23.40;61.00;;;;;;5034900;28;20018;-85
2022/09/05 01:13:58;;;;;;;10.80;9.70;;;23.60;60.70;;;;;;5039818;28;20049;-85
2022/09/05 01:17:05;;;;;;;8.95;7.85;;;23.60;60.40;;;;;;5054605;28;20021;-85
2022/09/05 01:19:44;;;;;;;11.95;9.50;;;23.60;60.90;;;;;;4974085;28;20121;-84
2022/09/05 01:22:43;;;;;;;12.13;10.15;;;23.60;60.80;;;;;;4957820;28;20117;-83
2022/09/05 01:25:27;;;;;;;13.25;10.50;;;23.60;60.90;;;;;;4962120;28;20030;-84
2022/09/05 01:28:00;;;;;;;10.85;9.75;;;23.60;60.80;;;;;;4957854;28;20038;-85
2022/09/05 01:30:46;;;;;;;11.68;9.65;;;23.60;60.80;;;;;;4957281;28;20039;-85
2022/09/05 01:33:24;;;;;;;11.65;10.02;;;23.60;60.80;;;;;;4973252;28;20063;-83
2022/09/05 01:36:03;;;;;;;11.57;9.98;;;23.60;60.70;;;;;;4973407;28;20050;-85
2022/09/05 01:38:47;;;;;;;10.97;9.87;;;23.50;60.80;;;;;;4957188;28;20187;-85
2022/09/05 01:41:34;;;;;;;13.20;10.63;;;23.50;60.70;;;;;;4973483;28;20649;-83
2022/09/05 01:44:39;;;;;;;10.63;9.45;;;23.40;61.10;;;;;;4956530;28;20045;-85
2022/09/05 01:47:34;;;;;;;12.07;9.80;;;23.40;61.70;;;;;;4954284;29;20396;-83
2022/09/05 01:50:05;;;;;;;9.68;8.57;;;23.50;61.20;;;;;;4934578;29;20381;-83
2022/09/05 01:52:39;;;;;;;11.23;9.00;;;23.40;61.80;;;;;;4943739;29;20044;-85
2022/09/05 01:55:24;;;;;;;12.40;9.98;;;23.40;61.50;;;;;;4936538;29;20090;-84
2022/09/05 01:58:12;;;;;;;11.43;10.23;;;23.50;61.00;;;;;;4955118;28;20118;-84
2022/09/05 02:01:16;;;;;;;11.52;10.05;;;23.60;60.80;;;;;;4966659;28;20436;-83
2022/09/05 02:03:51;;;;;;;9.73;8.73;;;23.60;60.60;;;;;;4968963;28;20496;-83
2022/09/05 02:06:52;;;;;;;12.43;10.20;;;23.50;60.90;;;;;;4956554;28;20038;-83
2022/09/05 02:09:23;;;;;;;;;;;23.40;61.30;;;;;;4981947;28;20042;-83
2022/09/05 02:12:16;;;;;;;14.25;10.05;;;23.20;61.50;;;;;;4980098;28;19910;-86
2022/09/05 02:14:55;;;;;;;12.85;11.55;;;23.20;61.50;;;;;;4971232;28;20467;-81
2022/09/05 02:17:34;;;;;;;11.77;10.48;;;23.00;61.90;;;;;;4954634;28;20363;-82
2022/09/05 02:20:32;;;;;;;13.85;10.80;;;23.10;62.20;;;;;;4956203;28;20031;-85
2022/09/05 02:23:20;;;;;;;14.25;11.52;;;23.00;62.20;;;;;;4972186;28;20413;-84
2022/09/05 02:26:16;;;;;;;10.15;9.15;;;23.10;62.30;;;;;;4974081;28;20035;-86
2022/09/05 02:29:01;;;;;;;12.75;11.20;;;23.00;62.40;;;;;;5035171;28;20036;-82
2022/09/05 02:32:02;;;;;;;12.40;10.30;;;23.00;62.50;;;;;;5052553;28;20074;-85
2022/09/05 02:34:49;;;;;;;13.52;11.05;;;22.90;62.70;;;;;;4964329;28;20039;-81
2022/09/05 02:37:24;;;;;;;12.80;11.18;;;22.80;62.70;;;;;;4956388;28;20034;-84
2022/09/05 02:39:58;;;;;;;11.98;9.93;;;22.80;62.60;;;;;;4972478;28;20035;-84
2022/09/05 02:42:24;;;;;;;14.10;11.30;;;22.90;62.50;;;;;;4956680;28;20031;-83
2022/09/05 02:45:24;;;;;;;15.93;11.32;;;23.00;62.30;;;;;;4972384;28;20435;-82
2022/09/05 02:48:16;;;;;;;;;;;23.10;62.10;;;;;;4934774;29;20522;-82
2022/09/05 02:50:42;;;;;;;11.40;10.20;;;23.10;61.70;;;;;;4891532;29;20307;-84
2022/09/05 02:53:11;;;;;;;12.43;10.20;;;23.20;61.50;;;;;;4862838;29;20049;-82
2022/09/05 02:55:43;;;;;;;9.90;8.38;;;23.20;61.60;;;;;;4861650;29;20045;-81
2022/09/05 02:58:45;;;;;;;8.85;7.82;;;22.80;62.30;;;;;;4873521;29;20109;-81
2022/09/05 03:01:48;;;;;;;9.00;7.88;;;22.30;63.70;;;;;;4862338;29;20105;-78
2022/09/05 03:04:21;;;;;;;11.35;9.95;;;22.00;64.70;;;;;;4842874;29;20057;-81
2022/09/05 03:07:04;;;;;;;11.13;9.50;;;22.30;63.60;;;;;;4875591;29;20057;-79
2022/09/05 03:09:45;;;;;;;10.55;9.45;;;22.60;62.80;;;;;;4896313;29;20051;-82
2022/09/05 03:12:53;;;;;;;10.85;9.02;;;22.70;62.50;;;;;;4895764;29;20153;-83
2022/09/05 03:15:45;;;;;;;11.55;10.27;;;22.80;62.00;;;;;;4887679;29;20043;-81
2022/09/05 03:18:44;;;;;;;10.68;9.23;;;22.90;62.10;;;;;;4898907;29;20042;-82
2022/09/05 03:21:32;;;;;;;13.35;10.35;;;22.80;61.80;;;;;;4915336;29;20052;-79
2022/09/05 03:24:18;;;;;;;12.55;10.45;;;22.80;61.90;;;;;;4922216;28;20047;-83
2022/09/05 03:27:09;;;;;;;13.05;10.60;;;22.80;62.00;;;;;;4977556;28;20468;-82
2022/09/05 03:30:10;;;;;;;11.80;10.43;;;22.80;62.00;;;;;;5027991;28;20029;-80
2022/09/05 03:32:47;;;;;;;11.05;9.95;;;22.80;61.80;;;;;;5033117;28;20034;-81
2022/09/05 03:35:31;;;;;;;12.55;10.02;;;22.80;61.80;;;;;;5035483;28;20468;-82
2022/09/05 03:37:57;;;;;;;11.15;9.15;;;22.90;61.70;;;;;;5035578;28;20449;-82
2022/09/05 03:40:38;;;;;;;10.60;9.50;;;22.80;61.70;;;;;;5033207;28;20527;-81
2022/09/05 03:43:24;;;;;;;11.60;10.25;;;22.80;62.00;;;;;;5021295;28;20092;-81
2022/09/05 03:46:15;;;;;;;11.48;9.75;;;22.90;62.00;;;;;;5014285;28;20109;-79
2022/09/05 03:48:58;;;;;;;12.75;9.90;;;22.90;61.60;;;;;;5017422;28;20061;-80
2022/09/05 03:51:49;;;;;;;13.80;11.02;;;22.90;61.70;;;;;;5038564;28;20443;-80
2022/09/05 03:54:44;;;;;;;14.18;11.38;;;22.90;61.50;;;;;;5032952;28;20422;-80
2022/09/05 03:57:28;;;;;;;13.77;11.50;;;23.00;61.40;;;;;;5036883;28;20119;-79
2022/09/05 04:00:08;;;;;;;14.60;11.73;;;23.00;61.30;;;;;;5028588;28;20491;-81
2022/09/05 04:03:09;;;;;;;13.90;11.30;;;23.00;61.40;;;;;;5036322;28;20086;-78
2022/09/05 04:05:40;;;;;;;13.10;10.38;;;22.90;61.60;;;;;;5036095;28;20108;-82
2022/09/05 04:08:09;;;;;;;;;;;22.90;61.50;;;;;;5055435;28;20121;-81
2022/09/05 04:10:48;;;;;;;18.80;12.98;;;22.80;62.00;;;;;;5019482;28;19909;-82
2022/09/05 04:13:37;;;;;;;12.02;10.75;;;22.80;62.00;;;;;;5017713;28;20473;-80
2022/09/05 04:16:31;;;;;;;11.43;10.23;;;22.70;62.00;;;;;;5037237;28;20037;-79
2022/09/05 04:19:40;;;;;;;13.70;11.65;;;22.70;62.10;;;;;;5054443;28;20016;-82
2022/09/05 04:22:29;;;;;;;13.15;11.73;;;22.70;62.20;;;;;;5035922;28;20032;-77
2022/09/05 04:25:37;;;;;;;15.38;11.80;;;22.60;62.30;;;;;;5029226;28;20032;-80
2022/09/05 04:28:42;;;;;;;16.40;12.23;;;22.70;62.40;;;;;;5053941;28;20087;-80
2022/09/05 04:31:19;;;;;;;14.45;10.65;;;22.70;62.60;;;;;;4970609;28;20503;-81
2022/09/05 04:33:52;;;;;;;14.13;11.70;;;22.80;62.60;;;;;;4970458;28;20075;-80
2022/09/05 04:36:35;;;;;;;14.25;11.73;;;22.80;62.60;;;;;;4944037;28;20041;-77
2022/09/05 04:39:18;;;;;;;11.98;10.68;;;22.90;62.40;;;;;;4973241;28;20023;-81
2022/09/05 04:42:00;;;;;;;11.52;10.27;;;22.90;62.50;;;;;;4972688;28;20383;-81
2022/09/05 04:44:31;;;;;;;13.27;10.95;;;22.80;62.40;;;;;;4970925;28;20053;-79
2022/09/05 04:47:03;;;;;;;12.48;10.57;;;22.80;62.50;;;;;;4938430;29;20035;-80
2022/09/05 04:49:36;;;;;;;11.60;9.52;;;22.90;62.50;;;;;;4948567;28;20062;-78
2022/09/05 04:52:29;;;;;;;14.60;10.45;;;22.90;62.40;;;;;;4973048;28;20039;-81
2022/09/05 04:55:14;;;;;;;13.15;10.10;;;23.00;62.40;;;;;;4958168;28;20505;-80
2022/09/05 04:57:51;;;;;;;12.63;10.10;;;23.00;62.50;;;;;;4973977;28;20031;-81
2022/09/05 05:00:36;;;;;;;11.93;10.57;;;23.10;62.50;;;;;;4955838;28;20035;-79
2022/09/05 05:03:10;;;;;;;12.75;11.10;;;23.10;62.40;;;;;;4969557;28;20038;-79
2022/09/05 05:05:41;;;;;;;18.15;11.93;;;23.10;62.50;;;;;;4956414;28;20053;-80
2022/09/05 05:08:40;;;;;;;14.98;11.60;;;23.20;62.80;;;;;;4984261;28;20038;-78
2022/09/05 05:11:20;;;;;;;12.77;11.07;;;23.20;62.90;;;;;;5014344;28;20033;-83
2022/09/05 05:13:54;;;;;;;12.70;10.95;;;23.30;63.00;;;;;;5005907;28;20022;-77
2022/09/05 05:16:24;;;;;;;11.57;10.38;;;23.30;62.90;;;;;;5013444;28;20034;-79
2022/09/05 05:18:59;;;;;;;11.68;9.57;;;23.50;62.80;;;;;;5014082;28;20478;-78
2022/09/05 05:21:27;;;;;;;12.20;10.82;;;23.50;62.70;;;;;;5000876;28;20030;-81
2022/09/05 05:23:59;;;;;;;10.95;9.70;;;23.60;62.50;;;;;;4997348;28;20049;-80
2022/09/05 05:26:35;;;;;;;11.35;9.75;;;23.70;62.50;;;;;;5014300;28;20014;-79
2022/09/05 05:29:34;;;;;;;10.30;9.30;;;23.70;62.40;;;;;;5011149;28;20036;-81
2022/09/05 05:32:02;;;;;;;9.45;8.45;;;23.80;62.40;;;;;;4963942;28;20553;-81
2022/09/05 05:34:45;;;;;;;14.18;9.63;;;23.70;62.50;;;;;;4937836;29;20038;-81
2022/09/05 05:37:36;;;;;;;10.27;9.20;;;23.70;62.50;;;;;;4954620;28;20154;-79
2022/09/05 05:40:07;;;;;;;;;;;23.70;62.60;;;;;;4973174;28;20563;-81
2022/09/05 05:42:35;;;;;;;9.65;8.07;;;23.80;62.70;;;;;;4956024;28;21048;-80
2022/09/05 05:45:02;;;;;;;10.10;8.70;;;23.90;62.40;;;;;;4955337;28;20499;-79
2022/09/05 05:47:35;;;;;;;12.98;8.63;;;24.00;62.60;;;;;;4955784;28;20031;-80
2022/09/05 05:50:17;;;;;;;8.48;7.57;;;24.10;62.50;;;;;;4956152;28;20086;-76
2022/09/05 05:52:43;;;;;;;9.48;7.95;;;24.00;63.00;;;;;;4970272;28;20066;-77
2022/09/05 05:55:45;;;;;;;10.63;8.07;;;23.80;63.60;;;;;;4939420;29;20122;-76
2022/09/05 05:58:27;;;;;;;8.57;7.55;;;23.90;63.50;;;;;;4946223;29;20023;-78
2022/09/05 06:01:20;;;;;;;8.50;7.07;;;24.00;63.60;;;;;;4943101;29;20058;-78
2022/09/05 06:04:05;;;;;;;9.93;7.13;;;23.60;64.50;;;;;;4937536;29;20076;-79
2022/09/05 06:06:49;;;;;;;7.38;6.57;;;23.50;65.30;;;;;;4951804;28;20463;-79
2022/09/05 06:09:38;;;;;;;8.75;7.03;;;23.70;64.80;;;;;;4991982;28;20401;-80
2022/09/05 06:12:26;;;;;;;7.45;5.97;;;23.80;65.10;;;;;;5000405;28;20026;-79
2022/09/05 06:15:40;;;;;;;8.18;6.40;;;24.20;64.00;;;;;;4956343;28;20034;-79
2022/09/05 06:18:17;;;;;;;7.90;5.90;;;24.50;62.70;;;;;;4876848;29;20132;-81
2022/09/05 06:20:48;;;;;;;6.35;5.60;;;24.70;61.70;;;;;;4877915;29;20059;-79
2022/09/05 06:23:49;;;;;;;8.63;6.18;;;24.80;61.70;;;;;;4877414;29;20626;-80
2022/09/05 06:26:17;;;;;;;;;;;24.80;62.30;;;;;;4856213;29;20041;-79
2022/09/05 06:28:55;;;;;;;8.20;6.00;;;24.60;62.80;;;;;;4859144;29;19916;-80
2022/09/05 06:31:34;;;;;;;8.68;6.80;;;24.80;62.80;;;;;;4859924;29;20037;-81
2022/09/05 06:34:03;;;;;;;6.88;5.43;;;25.10;62.70;;;;;;4858972;29;20389;-81
2022/09/05 06:36:53;;;;;;;7.80;5.40;;;25.10;61.20;;;;;;4859116;29;20128;-80
2022/09/05 06:39:38;;;;;;;9.40;5.43;;;25.30;61.60;;;;;;4175931;29;10000634;-78
2022/09/05 06:42:17;;;;;;;7.47;5.80;;;25.30;61.80;;;;;;4858849;29;20110;-81
2022/09/05 06:45:20;;;;;;;6.95;5.80;;;25.50;61.30;;;;;;4866125;29;20079;-81
2022/09/05 06:47:49;;;;;;;6.30;5.57;;;25.90;60.60;;;;;;4845942;29;20120;-80
2022/09/05 06:50:23;;;;;;;7.47;5.45;;;25.90;60.40;;;;;;4865229;29;20057;-79
2022/09/05 06:53:32;;;;;;;7.63;5.90;;;26.10;60.40;;;;;;4923488;29;20100;-82
2022/09/05 06:56:14;;;;;;;7.97;5.63;;;26.40;60.10;;;;;;5033384;28;20100;-79
2022/09/05 06:58:51;;;;;;;7.97;5.63;;;26.40;60.80;;;;;;5022186;28;20021;-77
2022/09/05 07:01:26;;;;;;;6.15;5.30;;;26.10;62.00;;;;;;5029373;28;20029;-79
2022/09/05 07:04:09;;;;;;;7.72;5.53;;;25.60;61.40;;;;;;5029452;28;20064;-80
2022/09/05 07:06:47;;;;;;;8.27;5.70;;;25.00;62.90;;;;;;5037305;28;20124;-77
2022/09/05 07:09:35;;;;;;;7.55;5.53;;;25.20;62.90;;;;;;5019759;28;20029;-79
2022/09/05 07:12:15;;;;;;;5.78;4.88;;;25.80;62.00;;;;;;5018863;28;20025;-80
2022/09/05 07:15:03;;;;;;;7.15;5.53;;;26.40;61.30;;;;;;5035267;28;20029;-82
2022/09/05 07:17:51;;;;;;;7.30;5.55;;;26.60;60.90;;;;;;5026390;28;20033;-89
2022/09/05 07:20:21;;;;;;;7.15;5.40;;;27.00;59.90;;;;;;5055556;28;20025;-80
2022/09/05 07:23:00;;;;;;;7.30;5.55;;;27.20;59.80;;;;;;5037702;28;20033;-80
2022/09/05 07:25:31;;;;;;;6.28;5.25;;;27.00;59.60;;;;;;5036732;28;20090;-80
2022/09/05 07:28:13;;;;;;;9.40;5.32;;;26.70;61.10;;;;;;5020566;28;20017;-79
2022/09/05 07:30:45;;;;;;;7.95;5.00;;;27.00;61.00;;;;;;5018633;28;20503;-79
2022/09/05 07:33:16;;;;;;;6.78;4.78;;;27.20;60.30;;;;;;5036264;28;20018;-79
2022/09/05 07:35:42;;;;;;;6.63;5.68;;;27.40;60.90;;;;;;5022473;28;20479;-80
2022/09/05 07:38:16;;;;;;;7.15;5.18;;;27.70;60.20;;;;;;5036433;28;20074;-80
2022/09/05 07:40:56;;;;;;;7.40;5.10;;;27.90;58.90;;;;;;5036334;28;20029;-85
2022/09/05 07:43:39;;;;;;;8.32;5.10;;;27.80;59.10;;;;;;5056234;28;20067;-86
2022/09/05 07:46:19;;;;;;;9.02;4.93;;;27.50;59.60;;;;;;5056332;28;20488;-83
2022/09/05 07:48:54;;;;;;;7.53;4.50;;;27.30;59.20;;;;;;5055484;28;20111;-83
2022/09/05 07:51:29;;;;;;;6.82;4.63;;;26.90;59.80;;;;;;5055407;28;20044;-86
2022/09/05 07:54:09;;;;;;;5.75;4.50;;;27.10;59.60;;;;;;5055721;28;20505;-80
2022/09/05 07:57:02;;;;;;;7.03;4.57;;;27.10;60.40;;;;;;5038198;28;20029;-79
2022/09/05 07:59:32;;;;;;;18.23;5.28;;;27.40;59.20;;;;;;5038213;28;20472;-85
2022/09/05 08:01:59;;;;;;;7.22;4.60;;;27.70;58.70;;;;;;5038871;28;20020;-81
2022/09/05 08:04:28;;;;;;;8.43;4.90;;;27.20;58.50;;;;;;5037868;28;20067;-86
2022/09/05 08:06:58;;;;;;;5.93;4.20;;;27.20;59.70;;;;;;5054856;28;20021;-86
2022/09/05 08:09:52;;;;;;;4.95;3.90;;;27.60;58.70;;;;;;5038087;28;20807;-89
2022/09/05 08:12:25;;;;;;;8.43;4.38;;;27.40;57.80;;;;;;5037895;28;20027;-84
2022/09/05 08:14:53;;;;;;;6.93;4.63;;;27.50;59.70;;;;;;5036925;28;20124;-81
2022/09/05 08:17:23;;;;;;;8.52;4.82;;;28.10;59.20;;;;;;5024033;28;20126;-80
2022/09/05 08:20:34;;;;;;;7.80;4.40;;;28.40;57.60;;;;;;5035550;28;20029;-84
2022/09/05 08:23:33;;;;;;;5.65;4.07;;;28.60;58.10;;;;;;5037294;28;20041;-88
2022/09/05 08:26:28;;;;;;;5.45;4.20;;;28.70;58.00;;;;;;5056463;28;20353;-84
2022/09/05 08:28:54;;;;;;;7.70;4.70;;;28.40;58.00;;;;;;4971633;28;20122;-84
2022/09/05 08:31:51;;;;;;;7.65;3.58;;;28.30;58.50;;;;;;4961074;28;20380;-80
2022/09/05 08:34:28;;;;;;;6.50;4.07;;;28.30;57.40;;;;;;4974550;28;20038;-82
2022/09/05 08:36:56;;;;;;;6.28;4.45;;;28.50;57.10;;;;;;4975231;28;20158;-81
2022/09/05 08:39:30;;;;;;;5.57;3.80;;;28.40;57.50;;;;;;4974678;28;20073;-88
2022/09/05 08:42:14;;;;;;;6.40;4.00;;;28.60;56.50;;;;;;4974026;28;20061;-81
2022/09/05 08:45:07;;;;;;;7.60;3.95;;;28.50;56.50;;;;;;4976469;28;20037;-81
2022/09/05 08:48:10;;;;;;;5.35;3.97;;;28.80;56.90;;;;;;4975666;28;20035;-84
2022/09/05 08:51:04;;;;;;;5.68;3.78;;;29.20;56.50;;;;;;4975202;28;20450;-81
2022/09/05 08:53:44;;;;;;;5.53;4.00;;;28.80;55.30;;;;;;4974561;28;20049;-86
2022/09/05 08:56:20;;;;;;;21.85;5.93;;;29.20;55.20;;;;;;4975807;28;20023;-87
2022/09/05 08:59:10;;;;;;;14.40;4.30;;;29.60;56.20;;;;;;4974993;28;20067;-91
2022/09/05 09:01:45;;;;;;;5.68;4.25;;;29.80;56.50;;;;;;4976861;28;20153;-87
2022/09/05 09:04:39;;;;;;;6.22;3.60;;;29.90;55.50;;;;;;4975128;28;20085;-81
2022/09/05 09:07:43;;;;;;;5.07;3.70;;;30.00;53.60;;;;;;4339596;28;10000384;-87
2022/09/05 09:10:29;;;;;;;5.28;3.60;;;29.60;54.50;;;;;;5055500;28;20032;-92
2022/09/05 09:13:20;;;;;;;6.10;3.78;;;29.10;56.10;;;;;;5037563;28;20036;-85
2022/09/05 09:16:21;;;;;;;4.30;3.35;;;29.10;55.20;;;;;;5058564;28;20063;-94
2022/09/05 09:18:46;;;;;;;5.90;3.50;;;29.50;55.00;;;;;;5056162;28;20029;-95
2022/09/05 09:21:25;;;;;;;4.90;3.70;;;30.00;54.80;;;;;;5039789;28;20029;-87
2022/09/05 09:24:06;;;;;;;4.95;3.78;;;30.30;53.80;;;;;;5038490;28;20048;-96
2022/09/05 09:26:41;;;;;;;4.38;3.38;;;30.60;52.80;;;;;;5038794;28;20024;-84
2022/09/05 09:29:11;;;;;;;4.68;3.42;;;30.70;51.80;;;;;;5037809;28;20025;-94
2022/09/05 09:31:42;;;;;;;5.80;3.90;;;30.60;53.40;;;;;;5038761;28;20506;-88
2022/09/05 09:34:15;;;;;;;5.50;3.95;;;30.50;51.70;;;;;;5055605;28;20431;-86
2022/09/05 09:36:55;;;;;;;4.57;3.80;;;30.20;51.70;;;;;;5056142;28;20025;-84
2022/09/05 09:39:36;;;;;;;7.55;3.75;;;30.20;52.50;;;;;;5036695;28;20075;-88
2022/09/05 09:42:10;;;;;;;4.72;3.90;;;30.00;52.00;;;;;;5038047;28;20060;-87
2022/09/05 09:45:23;;;;;;;5.93;4.20;;;29.70;52.60;;;;;;5036903;28;20036;-87
2022/09/05 09:47:58;;;;;;;7.97;3.92;;;29.70;52.00;;;;;;5038054;28;20051;-92
2022/09/05 09:50:41;;;;;;;5.85;4.72;;;30.10;53.60;;;;;;5054785;28;20574;-82
2022/09/05 09:53:13;;;;;;;6.43;4.40;;;30.50;52.00;;;;;;5036267;28;20028;-85
2022/09/05 09:56:08;;;;;;;5.95;3.92;;;30.90;51.00;;;;;;5039000;28;20040;-94
2022/09/05 09:58:46;;;;;;;5.65;4.75;;;31.00;51.90;;;;;;5040651;28;20036;-84
2022/09/05 10:01:55;;;;;;;6.22;4.38;;;31.10;51.70;;;;;;5036223;28;20361;-90
2022/09/05 10:04:45;;;;;;;5.72;4.57;;;31.60;50.80;;;;;;4973423;28;20375;-87
2022/09/05 10:07:36;;;;;;;5.07;3.80;;;32.30;52.00;;;;;;4973304;28;20501;-84
2022/09/05 10:10:11;;;;;;;5.85;4.10;;;32.70;50.60;;;;;;4960922;28;20039;-86
2022/09/05 10:13:12;;;;;;;7.53;4.10;;;33.50;49.70;;;;;;4973433;28;20022;-88
2022/09/05 10:15:51;;;;;;;5.68;4.70;;;34.10;48.80;;;;;;4956687;28;20525;-84
2022/09/05 10:18:35;;;;;;;5.35;4.00;;;34.40;48.60;;;;;;4972819;28;20125;-83
2022/09/05 10:21:23;;;;;;;4.85;4.10;;;34.40;48.10;;;;;;4973251;28;20035;-90
2022/09/05 10:24:26;;;;;;;4.70;4.00;;;34.10;48.80;;;;;;4973002;28;20035;-82
2022/09/05 10:27:30;;;;;;;7.68;4.00;;;33.30;49.10;;;;;;4973117;28;20169;-88
2022/09/05 10:30:10;;;;;;;5.45;3.70;;;33.20;50.30;;;;;;4878676;29;20037;-78
2022/09/05 10:32:54;;;;;;;5.82;3.58;;;33.30;47.70;;;;;;4862355;29;20033;-82
2022/09/05 10:35:27;;;;;;;6.38;3.75;;;32.50;48.90;;;;;;4877925;29;20029;-81
2022/09/05 10:38:03;;;;;;;6.18;3.50;;;31.30;49.20;;;;;;4863852;29;20048;-82
2022/09/05 10:40:33;;;;;;;5.20;3.72;;;31.10;49.60;;;;;;4899190;29;20039;-95
2022/09/05 10:43:11;;;;;;;;;;;30.90;51.00;;;;;;4960799;29;20126;-87
2022/09/05 10:45:55;;;;;;;4.78;3.70;;;30.90;51.30;;;;;;4955314;29;19912;-79
2022/09/05 10:48:47;;;;;;;5.55;3.60;;;31.40;51.40;;;;;;4937551;29;20464;-83
2022/09/05 10:51:34;;;;;;;4.47;3.55;;;32.00;50.40;;;;;;4937353;29;20133;-80
2022/09/05 10:54:13;;;;;;;4.90;3.85;;;32.50;49.60;;;;;;4953140;29;20173;-96
2022/09/05 10:56:48;;;;;;;5.47;3.70;;;32.30;50.00;;;;;;4937538;29;20024;-88
2022/09/05 10:59:36;;;;;;;4.18;3.45;;;32.40;50.50;;;;;;4937910;28;20487;-91
2022/09/05 11:02:18;;;;;;;5.90;3.85;;;32.20;50.10;;;;;;4939531;29;20038;-87
2022/09/05 11:05:15;;;;;;;6.40;3.67;;;32.20;50.40;;;;;;4954792;29;20046;-87
2022/09/05 11:07:57;;;;;;;5.70;3.40;;;32.30;50.20;;;;;;5036650;28;20057;-80
2022/09/05 11:10:36;;;;;;;6.50;3.55;;;32.30;49.10;;;;;;5053479;28;20029;-87
2022/09/05 11:13:09;;;;;;;9.60;3.60;;;32.00;50.70;;;;;;5038938;28;20088;-92
2022/09/05 11:15:37;;;;;;;4.00;3.25;;;31.80;50.00;;;;;;5053469;28;20021;-91
2022/09/05 11:18:22;;;;;;;4.60;3.40;;;31.80;50.20;;;;;;5054225;28;20028;-82
2022/09/05 11:20:58;;;;;;;4.50;3.30;;;31.70;50.80;;;;;;5054116;28;20031;-86
2022/09/05 11:23:39;;;;;;;5.93;3.72;;;31.60;51.40;;;;;;5035390;28;20033;-87
2022/09/05 11:26:06;;;;;;;;;;;31.60;50.80;;;;;;5035474;28;20017;-89
2022/09/05 11:28:52;;;;;;;5.15;3.50;;;31.70;51.60;;;;;;5055509;28;19905;-85
2022/09/05 11:31:26;;;;;;;6.40;3.80;;;31.90;50.50;;;;;;5038504;28;20025;-86
2022/09/05 11:34:28;;;;;;;8.82;3.72;;;32.20;49.30;;;;;;5039311;28;20032;-85
2022/09/05 11:36:58;;;;;;;4.88;3.40;;;32.20;50.40;;;;;;5032611;28;20090;-85
2022/09/05 11:40:11;;;;;;;5.40;3.72;;;32.20;49.50;;;;;;5038822;28;20029;-79
2022/09/05 11:43:08;;;;;;;5.63;3.70;;;32.20;49.70;;;;;;5056420;28;20053;-86
2022/09/05 11:45:49;;;;;;;4.65;3.63;;;32.00;50.40;;;;;;5056340;28;20407;-83
2022/09/05 11:48:35;;;;;;;4.28;3.40;;;32.10;49.90;;;;;;5056312;28;20025;-84
2022/09/05 11:51:41;;;;;;;4.88;3.67;;;32.20;48.90;;;;;;5056327;28;20045;-79
2022/09/05 11:54:30;;;;;;;6.60;3.47;;;32.30;48.20;;;;;;5038542;28;20071;-83
2022/09/05 11:57:02;;;;;;;5.77;3.63;;;32.40;49.50;;;;;;5038643;28;20021;-89
2022/09/05 11:59:33;;;;;;;5.03;3.40;;;32.50;49.50;;;;;;5056419;28;20304;-80
2022/09/05 12:02:17;;;;;;;4.05;3.25;;;32.40;50.30;;;;;;5037592;28;20365;-82
2022/09/05 12:05:11;;;;;;;5.82;3.30;;;32.10;48.90;;;;;;5037565;28;20525;-83
2022/09/05 12:08:05;;;;;;;5.10;3.25;;;31.50;49.20;;;;;;5055384;28;20075;-81
2022/09/05 12:10:58;;;;;;;4.35;3.25;;;31.20;49.60;;;;;;5056614;28;20025;-93
2022/09/05 12:13:34;;;;;;;4.65;3.47;;;31.30;50.50;;;;;;5037024;28;20028;-79
2022/09/05 12:16:06;;;;;;;4.32;3.50;;;31.40;51.10;;;;;;5038100;28;20361;-80
2022/09/05 12:18:46;;;;;;;4.90;3.10;;;31.60;50.70;;;;;;5038011;28;20032;-80
2022/09/05 12:22:01;;;;;;;4.75;3.25;;;31.60;51.10;;;;;;5055670;28;20029;-88
2022/09/05 12:24:50;;;;;;;4.93;3.60;;;31.50;51.00;;;;;;4974801;28;20038;-81
2022/09/05 12:27:19;;;;;;;4.72;3.47;;;31.40;52.00;;;;;;4974953;28;20117;-90
2022/09/05 12:29:53;;;;;;;5.15;3.60;;;31.50;51.80;;;;;;4974659;28;20093;-86
2022/09/05 12:32:20;;;;;;;4.97;3.60;;;31.60;50.20;;;;;;4974837;28;20050;-90
2022/09/05 12:34:50;;;;;;;5.38;3.53;;;31.80;50.30;;;;;;4958527;28;20031;-90
2022/09/05 12:37:25;;;;;;;;;;;32.00;49.90;;;;;;4975533;28;20359;-92
2022/09/05 12:39:56;;;;;;;5.43;3.50;;;32.00;50.30;;;;;;4957764;28;19906;-83
2022/09/05 12:42:44;;;;;;;4.32;3.35;;;32.20;49.90;;;;;;4974292;28;20035;-87
2022/09/05 12:45:10;;;;;;;4.70;3.53;;;32.40;49.70;;;;;;4958231;28;20031;-81
2022/09/05 12:48:07;;;;;;;4.60;3.53;;;32.70;50.40;;;;;;4974673;28;20038;-84
2022/09/05 12:50:53;;;;;;;5.25;3.47;;;32.90;50.10;;;;;;4974204;28;20070;-88
2022/09/05 12:53:21;;;;;;;4.65;3.70;;;33.10;48.90;;;;;;4973875;28;20031;-82
2022/09/05 12:56:14;;;;;;;6.40;3.75;;;33.20;49.10;;;;;;4958059;28;20126;-84
2022/09/05 12:58:43;;;;;;;5.88;3.45;;;33.30;49.40;;;;;;4954384;28;20023;-78
2022/09/05 13:01:12;;;;;;;5.72;3.42;;;33.40;49.40;;;;;;5004295;28;20046;-83
2022/09/05 13:04:06;;;;;;;4.57;3.58;;;33.20;49.80;;;;;;5033496;28;20033;-84
2022/09/05 13:06:45;;;;;;;5.68;3.70;;;32.90;51.10;;;;;;5033593;28;20032;-79
2022/09/05 13:09:23;;;;;;;4.00;3.08;;;32.60;50.60;;;;;;5035217;28;20049;-83
2022/09/05 13:12:02;;;;;;;4.85;3.60;;;32.60;49.10;;;;;;5033348;28;20021;-84
2022/09/05 13:14:51;;;;;;;4.95;3.40;;;32.50;49.50;;;;;;5033418;28;20079;-81
2022/09/05 13:17:25;;;;;;;6.22;3.28;;;32.50;49.90;;;;;;5033532;28;20030;-82
2022/09/05 13:19:52;;;;;;;4.03;3.13;;;32.70;49.80;;;;;;5035293;28;20026;-82
2022/09/05 13:22:21;;;;;;;5.32;3.90;;;32.50;48.60;;;;;;5033836;28;20065;-79
2022/09/05 13:24:57;;;;;;;5.55;3.35;;;32.20;49.20;;;;;;5034519;28;20116;-83
2022/09/05 13:27:38;;;;;;;4.82;3.60;;;32.10;49.00;;;;;;5034370;28;20032;-82
2022/09/05 13:30:11;;;;;;;;;;;32.40;49.30;;;;;;5034705;28;20025;-81
2022/09/05 13:32:43;;;;;;;5.18;3.88;;;32.70;48.50;;;;;;5033086;28;20246;-85
2022/09/05 13:35:31;;;;;;;5.25;3.45;;;32.80;48.40;;;;;;5034526;28;20029;-82
2022/09/05 13:38:14;;;;;;;3.75;2.88;;;32.80;49.70;;;;;;5034396;28;20408;-82
2022/09/05 13:40:46;;;;;;;8.40;3.60;;;32.80;49.30;;;;;;5033030;28;20034;-80
2022/09/05 13:43:25;;;;;;;5.03;3.60;;;32.70;49.40;;;;;;5033711;28;20456;-83
2022/09/05 13:46:03;;;;;;;5.28;3.75;;;32.80;48.80;;;;;;5034177;28;20025;-83
2022/09/05 13:48:38;;;;;;;4.60;3.45;;;33.00;48.30;;;;;;5033003;28;20028;-83
2022/09/05 13:51:31;;;;;;;5.30;3.60;;;32.90;48.00;;;;;;5042480;28;20037;-81
2022/09/05 13:54:35;;;;;;;6.57;3.65;;;32.80;48.20;;;;;;5053871;28;20025;-88
2022/09/05 13:57:15;;;;;;;6.35;3.90;;;32.80;48.30;;;;;;4957337;28;20034;-82
2022/09/05 14:00:01;;;;;;;4.90;3.78;;;32.50;48.10;;;;;;4973290;28;20030;-79
2022/09/05 14:02:48;;;;;;;6.05;3.50;;;32.30;48.80;;;;;;4972609;28;20046;-93